createdAt,value
2018-06-05T00:02:31.668Z,20.80
2018-06-05T00:07:26.126Z,20.33
2018-06-05T00:12:20.984Z,20.53
2018-06-05T00:17:15.496Z,22.90
2018-06-05T00:22:10.284Z,22.13
2018-06-05T00:27:04.756Z,21.70
2018-06-05T00:31:59.356Z,22.33
2018-06-05T00:36:54.012Z,22.20
2018-06-05T00:41:48.465Z,24.03
2018-06-05T00:46:42.980Z,23.17
2018-06-05T00:51:54.469Z,23.07
2018-06-05T00:56:48.982Z,25.27
2018-06-05T01:01:43.253Z,25.43
2018-06-05T01:06:37.690Z,26.80
2018-06-05T01:11:32.226Z,27.23
2018-06-05T01:16:26.692Z,26.60
2018-06-05T01:21:21.262Z,26.87
2018-06-05T01:26:17.450Z,27.67
2018-06-05T01:31:11.704Z,29.53
2018-06-05T01:36:06.396Z,29.83
2018-06-05T01:41:00.996Z,29.30
2018-06-05T01:45:55.642Z,28.57
2018-06-05T01:50:50.136Z,29.27
2018-06-05T01:55:44.694Z,34.37
2018-06-05T02:00:39.330Z,33.83
2018-06-05T02:05:34.444Z,34.53
2018-06-05T02:10:28.924Z,33.20
2018-06-05T02:15:23.664Z,32.97
2018-06-05T02:20:18.079Z,35.70
2018-06-05T02:25:13.308Z,36.13
2018-06-05T02:30:08.012Z,35.30
2018-06-05T02:35:02.746Z,37.30
2018-06-05T02:39:57.663Z,37.03
2018-06-05T02:44:52.302Z,39.07
2018-06-05T02:49:46.687Z,40.83
2018-06-05T02:54:41.179Z,38.77
2018-06-05T02:59:35.724Z,37.67
2018-06-05T03:04:30.180Z,39.07
2018-06-05T03:09:25.009Z,37.57
2018-06-05T03:14:19.506Z,35.97
2018-06-05T03:19:14.098Z,35.53
2018-06-05T03:24:08.605Z,36.47
2018-06-05T03:29:03.110Z,38.10
2018-06-05T03:33:57.922Z,38.40
2018-06-05T03:38:52.694Z,35.93
2018-06-05T03:43:47.420Z,38.83
2018-06-05T03:48:41.854Z,35.40
2018-06-05T03:53:36.340Z,36.30
2018-06-05T03:58:30.853Z,36.47
2018-06-05T04:03:25.522Z,36.70
2018-06-05T04:08:19.718Z,39.80
2018-06-05T04:13:14.330Z,43.10
2018-06-05T04:18:08.893Z,39.00
2018-06-05T04:23:03.454Z,42.60
2018-06-05T04:27:57.956Z,41.43
2018-06-05T04:32:52.424Z,39.87
2018-06-05T04:37:47.062Z,37.97
2018-06-05T04:42:41.604Z,37.03
2018-06-05T04:47:36.134Z,36.37
2018-06-05T04:52:30.576Z,35.90
2018-06-05T04:57:24.963Z,36.10
2018-06-05T05:02:19.404Z,35.73
2018-06-05T05:07:14.234Z,33.47
2018-06-05T05:12:08.683Z,31.63
2018-06-05T05:17:03.210Z,30.93
2018-06-05T05:21:57.922Z,32.47
2018-06-05T05:26:52.158Z,30.07
2018-06-05T05:31:46.634Z,29.67
2018-06-05T05:36:41.288Z,29.93
2018-06-05T05:41:35.950Z,29.50
2018-06-05T05:46:30.873Z,30.40
2018-06-05T05:51:25.822Z,29.57
2018-06-05T05:56:20.473Z,29.43
2018-06-05T06:01:15.217Z,27.30
2018-06-05T06:06:09.710Z,27.90
2018-06-05T06:11:03.938Z,29.43
2018-06-05T06:15:58.584Z,28.23
2018-06-05T06:20:53.208Z,28.90
2018-06-05T06:25:47.459Z,27.17
2018-06-05T06:30:41.959Z,27.73
2018-06-05T06:35:36.749Z,27.80
2018-06-05T06:40:31.865Z,26.30
2018-06-05T06:45:26.320Z,25.77
2018-06-05T06:50:21.316Z,24.23
2018-06-05T06:55:15.795Z,29.97
2018-06-05T07:00:10.663Z,30.37
2018-06-05T07:05:05.132Z,29.57
2018-06-05T07:09:59.870Z,28.57
2018-06-05T07:14:54.329Z,25.10
2018-06-05T07:19:48.791Z,23.30
2018-06-05T07:24:43.300Z,23.80
2018-06-05T07:29:37.798Z,25.63
2018-06-05T07:34:32.426Z,25.63
2018-06-05T07:39:27.024Z,26.17
2018-06-05T07:44:21.926Z,25.27
2018-06-05T07:49:17.067Z,23.23
2018-06-05T07:54:11.896Z,22.60
2018-06-05T07:59:07.297Z,22.80
2018-06-05T08:04:01.899Z,23.37
2018-06-05T08:08:56.407Z,24.07
2018-06-05T08:13:50.906Z,27.67
2018-06-05T08:18:45.665Z,23.33
2018-06-05T08:23:40.435Z,27.10
2018-06-05T08:28:35.048Z,23.93
2018-06-05T08:33:29.520Z,25.57
2018-06-05T08:38:24.702Z,22.43
2018-06-05T08:43:20.228Z,24.70
2018-06-05T08:48:14.866Z,24.67
2018-06-05T08:53:09.466Z,24.83
2018-06-05T08:58:03.944Z,26.17
2018-06-05T09:02:58.158Z,25.53
2018-06-05T09:07:52.901Z,23.53
2018-06-05T09:12:47.358Z,24.00
2018-06-05T09:17:41.943Z,23.70
2018-06-05T09:22:36.560Z,21.57
2018-06-05T09:27:31.029Z,23.27
2018-06-05T09:32:25.892Z,25.30
2018-06-05T09:37:20.365Z,26.40
2018-06-05T09:42:14.863Z,24.47
2018-06-05T09:47:09.727Z,24.47
2018-06-05T09:52:04.189Z,26.17
2018-06-05T09:56:58.679Z,25.63
2018-06-05T10:01:53.148Z,26.67
2018-06-05T10:06:49.936Z,27.43
2018-06-05T10:11:44.484Z,28.70
2018-06-05T10:16:38.951Z,25.50
2018-06-05T10:21:33.426Z,22.63
2018-06-05T10:26:28.104Z,24.90
2018-06-05T10:31:23.164Z,23.43
2018-06-05T10:36:17.920Z,24.90
2018-06-05T10:41:12.930Z,23.10
2018-06-05T10:46:07.667Z,26.37
2018-06-05T10:51:02.605Z,26.27
2018-06-05T10:55:57.340Z,24.00
2018-06-05T11:00:52.166Z,22.97
2018-06-05T11:05:47.152Z,21.63
2018-06-05T11:10:41.907Z,22.47
2018-06-05T11:15:36.696Z,24.27
2018-06-05T11:20:31.236Z,21.40
2018-06-05T11:25:26.263Z,25.30
2018-06-05T11:30:21.031Z,21.57
2018-06-05T11:35:15.544Z,25.50
2018-06-05T11:40:10.052Z,25.93
2018-06-05T11:45:05.077Z,23.60
2018-06-05T11:49:59.549Z,25.97
2018-06-05T11:54:54.263Z,22.57
2018-06-05T11:59:48.899Z,28.83
2018-06-05T12:04:43.412Z,27.03
2018-06-05T12:09:38.258Z,26.93
2018-06-05T12:14:32.949Z,28.73
2018-06-05T12:19:27.535Z,26.07
2018-06-05T12:24:22.261Z,29.03
2018-06-05T12:29:16.928Z,27.83
2018-06-05T12:34:11.408Z,28.77
2018-06-05T12:39:08.652Z,27.60
2018-06-05T12:44:03.728Z,28.83
2018-06-05T12:48:58.516Z,25.67
2018-06-05T12:53:52.781Z,30.47
2018-06-05T12:58:47.315Z,31.07
2018-06-05T13:03:42.096Z,32.20
2018-06-05T13:08:36.950Z,31.17
2018-06-05T13:13:31.602Z,32.83
2018-06-05T13:18:26.937Z,34.50
2018-06-05T13:23:21.959Z,31.97
2018-06-05T13:28:16.542Z,29.50
2018-06-05T13:33:11.014Z,28.50
2018-06-05T13:38:05.570Z,32.23
2018-06-05T13:43:00.227Z,33.40
2018-06-05T13:47:54.668Z,31.47
2018-06-05T13:52:49.271Z,32.97
2018-06-05T13:57:44.074Z,33.47
2018-06-05T14:02:38.750Z,34.23
2018-06-05T14:07:33.462Z,34.57
2018-06-05T14:12:28.338Z,38.53
2018-06-05T14:17:23.148Z,36.10
2018-06-05T14:22:17.605Z,33.67
2018-06-05T14:27:12.066Z,34.93
2018-06-05T14:32:06.763Z,35.77
2018-06-05T14:37:01.384Z,36.67
2018-06-05T14:41:56.176Z,35.53
2018-06-05T14:46:50.632Z,33.37
2018-06-05T14:51:45.115Z,34.87
2018-06-05T14:56:39.576Z,34.40
2018-06-05T15:01:34.089Z,37.03
2018-06-05T15:06:29.276Z,36.07
2018-06-05T15:11:23.960Z,37.37
2018-06-05T15:16:18.390Z,36.13
2018-06-05T15:21:13.105Z,32.83
2018-06-05T15:26:08.684Z,32.53
2018-06-05T15:31:04.459Z,32.63
2018-06-05T15:36:00.752Z,31.00
2018-06-05T15:40:55.605Z,32.93
2018-06-05T15:45:50.632Z,31.17
2018-06-05T15:50:45.361Z,31.50
2018-06-05T15:55:40.677Z,31.40
2018-06-05T16:00:35.828Z,30.90
2018-06-05T16:05:30.918Z,31.87
2018-06-05T16:10:26.460Z,35.57
2018-06-05T16:15:21.258Z,33.50
2018-06-05T16:20:16.071Z,34.13
2018-06-05T16:25:11.077Z,31.23
2018-06-05T16:30:06.848Z,34.17
2018-06-05T16:35:01.355Z,30.43
2018-06-05T16:39:56.439Z,33.53
2018-06-05T16:44:51.775Z,36.70
2018-06-05T16:49:46.414Z,34.47
2018-06-05T16:54:43.356Z,34.53
2018-06-05T16:59:38.738Z,32.77
2018-06-05T17:04:35.624Z,32.53
2018-06-05T17:09:31.774Z,33.23
2018-06-05T17:14:32.402Z,32.43
2018-06-05T17:19:29.925Z,32.97
2018-06-05T17:24:25.990Z,32.20
2018-06-05T17:29:22.398Z,34.00
2018-06-05T17:34:16.857Z,31.87
2018-06-05T17:39:11.784Z,32.10
2018-06-05T17:44:06.244Z,35.50
2018-06-05T17:49:00.584Z,35.43
2018-06-05T17:53:55.056Z,36.00
2018-06-05T17:58:50.008Z,39.60
2018-06-05T18:03:45.408Z,38.27
2018-06-05T18:08:40.257Z,39.87
2018-06-05T18:13:35.234Z,40.97
2018-06-05T18:18:29.872Z,42.60
2018-06-05T18:23:24.794Z,42.50
2018-06-05T18:28:19.658Z,42.63
2018-06-05T18:33:14.041Z,41.77
2018-06-05T18:38:08.727Z,40.67
2018-06-05T18:43:03.553Z,39.83
2018-06-05T18:47:58.603Z,38.83
2018-06-05T18:52:53.535Z,37.20
2018-06-05T18:57:48.540Z,36.07
2018-06-05T19:02:44.317Z,34.80
2018-06-05T19:07:39.428Z,35.10
2018-06-05T19:12:34.480Z,32.90
2018-06-05T19:17:29.051Z,32.43
2018-06-05T19:22:24.595Z,31.27
2018-06-05T19:27:19.188Z,30.53
2018-06-05T19:32:14.226Z,29.07
2018-06-05T19:37:09.239Z,28.20
2018-06-05T19:42:03.988Z,28.47
2018-06-05T19:46:58.802Z,27.17
2018-06-05T19:51:53.492Z,28.13
2018-06-05T19:56:48.495Z,31.10
2018-06-05T20:01:43.057Z,33.63
2018-06-05T20:06:38.188Z,32.63
2018-06-05T20:11:33.075Z,32.17
2018-06-05T20:16:28.412Z,35.03
2018-06-05T20:21:23.445Z,33.10
2018-06-05T20:26:18.676Z,32.33
2018-06-05T20:31:13.788Z,32.00
2018-06-05T20:36:09.993Z,35.43
2018-06-05T20:41:04.750Z,35.17
2018-06-05T20:45:59.713Z,34.67
2018-06-05T20:50:54.837Z,37.43
2018-06-05T20:55:49.531Z,38.20
2018-06-05T21:00:44.739Z,37.63
2018-06-05T21:05:39.556Z,38.77
2018-06-05T21:10:34.633Z,39.17
2018-06-05T21:15:29.347Z,38.20
2018-06-05T21:20:24.164Z,38.57
2018-06-05T21:25:19.129Z,38.73
2018-06-05T21:30:14.204Z,38.50
2018-06-05T21:35:09.157Z,39.77
2018-06-05T21:40:04.758Z,39.50
2018-06-05T21:44:59.554Z,39.27
2018-06-05T21:49:54.138Z,38.40
2018-06-05T21:54:48.838Z,39.60
2018-06-05T21:59:43.710Z,39.73
2018-06-05T22:04:48.677Z,38.40
2018-06-05T22:09:43.776Z,38.00
2018-06-05T22:14:38.624Z,39.37
2018-06-05T22:19:33.143Z,38.23
2018-06-05T22:24:27.842Z,38.43
2018-06-05T22:29:22.596Z,38.90
2018-06-05T22:34:16.984Z,37.40
2018-06-05T22:39:11.486Z,39.57
2018-06-05T22:44:05.967Z,37.80
2018-06-05T22:49:00.558Z,37.63
2018-06-05T22:53:55.268Z,38.00
2018-06-05T22:58:49.854Z,35.80
2018-06-05T23:03:44.448Z,38.07
2018-06-05T23:08:38.903Z,37.77
2018-06-05T23:13:33.439Z,39.00
2018-06-05T23:18:27.974Z,39.00
2018-06-05T23:23:22.757Z,41.20
2018-06-05T23:28:17.310Z,38.57
2018-06-05T23:33:12.415Z,39.17
2018-06-05T23:38:07.017Z,40.63
2018-06-05T23:43:01.685Z,39.47
2018-06-05T23:47:56.680Z,39.57
2018-06-05T23:52:50.948Z,40.27
2018-06-05T23:57:45.456Z,40.93
